sensor_id;sensor_type;location;lat;lon;timestamp;P1;durP1;ratioP1;P2;durP2;ratioP2
5285;SDS011;2665;53.112;7.358;2022-11-20T00:01:42;7.37;;;4.17;;
5285;SDS011;2665;53.112;7.358;2022-11-20T00:04:07;6.80;;;4.10;;
5285;SDS011;2665;53.112;7.358;2022-11-20T00:06:35;7.50;;;4.00;;
5285;SDS011;2665;53.112;7.358;2022-11-20T00:09:00;7.17;;;4.20;;
5285;SDS011;2665;53.112;7.358;2022-11-20T00:11:27;6.97;;;5.03;;
5285;SDS011;2665;53.112;7.358;2022-11-20T00:13:54;7.80;;;4.30;;
5285;SDS011;2665;53.112;7.358;2022-11-20T00:16:23;7.83;;;3.90;;
5285;SDS011;2665;53.112;7.358;2022-11-20T00:18:50;6.97;;;4.40;;
5285;SDS011;2665;53.112;7.358;2022-11-20T00:21:17;8.30;;;4.73;;
5285;SDS011;2665;53.112;7.358;2022-11-20T00:23:44;7.90;;;4.80;;
5285;SDS011;2665;53.112;7.358;2022-11-20T00:26:10;6.73;;;4.30;;
5285;SDS011;2665;53.112;7.358;2022-11-20T00:28:38;6.17;;;3.93;;
5285;SDS011;2665;53.112;7.358;2022-11-20T00:31:05;6.30;;;3.73;;
5285;SDS011;2665;53.112;7.358;2022-11-20T00:33:32;7.00;;;3.53;;
5285;SDS011;2665;53.112;7.358;2022-11-20T00:35:59;4.43;;;3.40;;
5285;SDS011;2665;53.112;7.358;2022-11-20T00:38:32;6.37;;;3.97;;
5285;SDS011;2665;53.112;7.358;2022-11-20T00:41:01;10.63;;;4.77;;
5285;SDS011;2665;53.112;7.358;2022-11-20T00:43:28;8.00;;;4.87;;
5285;SDS011;2665;53.112;7.358;2022-11-20T00:46:00;8.33;;;4.30;;
5285;SDS011;2665;53.112;7.358;2022-11-20T00:48:28;6.43;;;3.77;;
5285;SDS011;2665;53.112;7.358;2022-11-20T00:50:54;3.30;;;2.90;;
5285;SDS011;2665;53.112;7.358;2022-11-20T00:53:20;4.90;;;2.40;;
5285;SDS011;2665;53.112;7.358;2022-11-20T00:55:55;6.20;;;4.47;;
5285;SDS011;2665;53.112;7.358;2022-11-20T00:58:29;3.93;;;2.60;;
5285;SDS011;2665;53.112;7.358;2022-11-20T01:01:00;2.93;;;2.20;;
5285;SDS011;2665;53.112;7.358;2022-11-20T01:03:27;5.00;;;3.27;;
5285;SDS011;2665;53.112;7.358;2022-11-20T01:05:53;11.17;;;3.77;;
5285;SDS011;2665;53.112;7.358;2022-11-20T01:08:18;6.03;;;4.10;;
5285;SDS011;2665;53.112;7.358;2022-11-20T01:10:44;7.60;;;4.73;;
5285;SDS011;2665;53.112;7.358;2022-11-20T01:13:09;7.00;;;4.10;;
5285;SDS011;2665;53.112;7.358;2022-11-20T01:15:53;9.53;;;4.97;;
5285;SDS011;2665;53.112;7.358;2022-11-20T01:18:19;7.10;;;4.27;;
5285;SDS011;2665;53.112;7.358;2022-11-20T01:20:44;6.40;;;4.63;;
5285;SDS011;2665;53.112;7.358;2022-11-20T01:23:10;16.63;;;5.40;;
5285;SDS011;2665;53.112;7.358;2022-11-20T01:25:36;7.20;;;4.53;;
5285;SDS011;2665;53.112;7.358;2022-11-20T01:28:01;8.23;;;5.13;;
5285;SDS011;2665;53.112;7.358;2022-11-20T01:30:27;7.43;;;4.33;;
5285;SDS011;2665;53.112;7.358;2022-11-20T01:32:54;6.30;;;3.57;;
5285;SDS011;2665;53.112;7.358;2022-11-20T01:35:20;6.17;;;4.50;;
5285;SDS011;2665;53.112;7.358;2022-11-20T01:37:46;8.17;;;4.30;;
5285;SDS011;2665;53.112;7.358;2022-11-20T01:40:11;6.97;;;4.50;;
5285;SDS011;2665;53.112;7.358;2022-11-20T01:42:37;6.80;;;4.97;;
5285;SDS011;2665;53.112;7.358;2022-11-20T01:48:15;5.60;;;4.43;;
5285;SDS011;2665;53.112;7.358;2022-11-20T01:50:42;7.07;;;4.57;;
5285;SDS011;2665;53.112;7.358;2022-11-20T01:53:09;6.90;;;3.90;;
5285;SDS011;2665;53.112;7.358;2022-11-20T01:55:41;7.47;;;4.23;;
5285;SDS011;2665;53.112;7.358;2022-11-20T01:58:14;8.60;;;4.77;;
5285;SDS011;2665;53.112;7.358;2022-11-20T02:00:41;8.97;;;4.80;;
5285;SDS011;2665;53.112;7.358;2022-11-20T02:03:08;9.03;;;4.60;;
5285;SDS011;2665;53.112;7.358;2022-11-20T02:05:38;6.57;;;4.10;;
5285;SDS011;2665;53.112;7.358;2022-11-20T02:08:11;6.30;;;4.40;;
5285;SDS011;2665;53.112;7.358;2022-11-20T02:10:37;7.80;;;5.90;;
5285;SDS011;2665;53.112;7.358;2022-11-20T02:13:03;12.93;;;4.00;;
5285;SDS011;2665;53.112;7.358;2022-11-20T02:15:49;7.27;;;4.90;;
5285;SDS011;2665;53.112;7.358;2022-11-20T02:18:16;6.90;;;3.80;;
5285;SDS011;2665;53.112;7.358;2022-11-20T02:20:44;6.20;;;4.60;;
5285;SDS011;2665;53.112;7.358;2022-11-20T02:23:13;8.40;;;4.83;;
5285;SDS011;2665;53.112;7.358;2022-11-20T02:25:55;8.83;;;4.03;;
5285;SDS011;2665;53.112;7.358;2022-11-20T02:28:23;8.10;;;5.50;;
5285;SDS011;2665;53.112;7.358;2022-11-20T02:30:50;7.00;;;4.27;;
5285;SDS011;2665;53.112;7.358;2022-11-20T02:33:15;5.70;;;3.77;;
5285;SDS011;2665;53.112;7.358;2022-11-20T02:35:43;6.60;;;3.90;;
5285;SDS011;2665;53.112;7.358;2022-11-20T02:38:11;9.57;;;4.70;;
5285;SDS011;2665;53.112;7.358;2022-11-20T02:40:37;6.77;;;5.00;;
5285;SDS011;2665;53.112;7.358;2022-11-20T02:43:03;5.90;;;4.60;;
5285;SDS011;2665;53.112;7.358;2022-11-20T02:45:29;8.00;;;4.17;;
5285;SDS011;2665;53.112;7.358;2022-11-20T02:47:55;5.47;;;4.00;;
5285;SDS011;2665;53.112;7.358;2022-11-20T02:50:21;7.10;;;4.73;;
5285;SDS011;2665;53.112;7.358;2022-11-20T02:52:46;6.13;;;4.27;;
5285;SDS011;2665;53.112;7.358;2022-11-20T02:55:12;7.80;;;4.97;;
5285;SDS011;2665;53.112;7.358;2022-11-20T02:57:37;8.00;;;4.40;;
5285;SDS011;2665;53.112;7.358;2022-11-20T03:00:03;6.20;;;4.23;;
5285;SDS011;2665;53.112;7.358;2022-11-20T03:02:30;6.63;;;4.57;;
5285;SDS011;2665;53.112;7.358;2022-11-20T03:04:56;4.50;;;3.23;;
5285;SDS011;2665;53.112;7.358;2022-11-20T03:07:21;7.53;;;4.03;;
5285;SDS011;2665;53.112;7.358;2022-11-20T03:09:47;5.60;;;3.03;;
5285;SDS011;2665;53.112;7.358;2022-11-20T03:12:13;5.07;;;3.40;;
5285;SDS011;2665;53.112;7.358;2022-11-20T03:14:38;6.80;;;4.53;;
5285;SDS011;2665;53.112;7.358;2022-11-20T03:17:04;7.20;;;4.00;;
5285;SDS011;2665;53.112;7.358;2022-11-20T03:19:29;5.80;;;3.90;;
5285;SDS011;2665;53.112;7.358;2022-11-20T03:21:55;7.53;;;3.83;;
5285;SDS011;2665;53.112;7.358;2022-11-20T03:24:21;6.33;;;3.97;;
5285;SDS011;2665;53.112;7.358;2022-11-20T03:26:46;6.10;;;3.83;;
5285;SDS011;2665;53.112;7.358;2022-11-20T03:29:12;6.13;;;3.80;;
5285;SDS011;2665;53.112;7.358;2022-11-20T03:31:38;6.70;;;4.50;;
5285;SDS011;2665;53.112;7.358;2022-11-20T03:34:09;5.17;;;3.53;;
5285;SDS011;2665;53.112;7.358;2022-11-20T03:36:37;5.13;;;3.33;;
5285;SDS011;2665;53.112;7.358;2022-11-20T03:39:07;6.00;;;4.00;;
5285;SDS011;2665;53.112;7.358;2022-11-20T03:41:37;8.07;;;4.70;;
5285;SDS011;2665;53.112;7.358;2022-11-20T03:44:04;6.57;;;4.20;;
5285;SDS011;2665;53.112;7.358;2022-11-20T03:46:31;5.60;;;3.73;;
5285;SDS011;2665;53.112;7.358;2022-11-20T03:48:57;6.83;;;4.50;;
5285;SDS011;2665;53.112;7.358;2022-11-20T03:51:24;5.70;;;3.67;;
5285;SDS011;2665;53.112;7.358;2022-11-20T03:53:54;9.50;;;4.40;;
5285;SDS011;2665;53.112;7.358;2022-11-20T03:56:23;7.57;;;4.47;;
5285;SDS011;2665;53.112;7.358;2022-11-20T03:58:53;7.53;;;4.20;;
5285;SDS011;2665;53.112;7.358;2022-11-20T04:01:20;6.43;;;4.10;;
5285;SDS011;2665;53.112;7.358;2022-11-20T04:03:47;8.17;;;4.23;;
5285;SDS011;2665;53.112;7.358;2022-11-20T04:06:14;9.47;;;4.00;;
5285;SDS011;2665;53.112;7.358;2022-11-20T04:08:44;5.00;;;3.00;;
5285;SDS011;2665;53.112;7.358;2022-11-20T04:11:14;6.17;;;3.17;;
5285;SDS011;2665;53.112;7.358;2022-11-20T04:13:46;8.37;;;4.13;;
5285;SDS011;2665;53.112;7.358;2022-11-20T04:16:13;9.50;;;5.03;;
5285;SDS011;2665;53.112;7.358;2022-11-20T04:18:39;7.83;;;4.10;;
5285;SDS011;2665;53.112;7.358;2022-11-20T04:21:05;7.53;;;4.03;;
5285;SDS011;2665;53.112;7.358;2022-11-20T04:23:31;11.70;;;4.97;;
5285;SDS011;2665;53.112;7.358;2022-11-20T04:28:32;9.00;;;4.97;;
5285;SDS011;2665;53.112;7.358;2022-11-20T04:31:12;7.27;;;4.07;;
5285;SDS011;2665;53.112;7.358;2022-11-20T04:33:40;6.40;;;3.73;;
5285;SDS011;2665;53.112;7.358;2022-11-20T04:36:07;8.50;;;5.17;;
5285;SDS011;2665;53.112;7.358;2022-11-20T04:38:37;11.30;;;4.30;;
5285;SDS011;2665;53.112;7.358;2022-11-20T04:41:04;5.73;;;3.10;;
5285;SDS011;2665;53.112;7.358;2022-11-20T04:43:31;6.07;;;3.57;;
5285;SDS011;2665;53.112;7.358;2022-11-20T04:45:58;8.80;;;4.30;;
5285;SDS011;2665;53.112;7.358;2022-11-20T04:48:25;10.93;;;5.50;;
5285;SDS011;2665;53.112;7.358;2022-11-20T04:50:52;5.87;;;3.93;;
5285;SDS011;2665;53.112;7.358;2022-11-20T04:53:18;11.33;;;4.70;;
5285;SDS011;2665;53.112;7.358;2022-11-20T04:55:44;9.83;;;5.10;;
5285;SDS011;2665;53.112;7.358;2022-11-20T04:58:10;9.03;;;5.20;;
5285;SDS011;2665;53.112;7.358;2022-11-20T05:00:36;6.10;;;4.00;;
5285;SDS011;2665;53.112;7.358;2022-11-20T05:03:02;5.63;;;3.70;;
5285;SDS011;2665;53.112;7.358;2022-11-20T05:05:28;8.77;;;5.60;;
5285;SDS011;2665;53.112;7.358;2022-11-20T05:07:55;7.20;;;3.93;;
5285;SDS011;2665;53.112;7.358;2022-11-20T05:10:22;7.03;;;4.33;;
5285;SDS011;2665;53.112;7.358;2022-11-20T05:12:48;7.90;;;4.80;;
5285;SDS011;2665;53.112;7.358;2022-11-20T05:15:14;9.30;;;4.33;;
5285;SDS011;2665;53.112;7.358;2022-11-20T05:17:39;7.90;;;4.20;;
5285;SDS011;2665;53.112;7.358;2022-11-20T05:20:05;7.90;;;4.93;;
5285;SDS011;2665;53.112;7.358;2022-11-20T05:22:31;8.20;;;5.27;;
5285;SDS011;2665;53.112;7.358;2022-11-20T05:24:57;7.30;;;5.10;;
5285;SDS011;2665;53.112;7.358;2022-11-20T05:27:22;7.07;;;4.40;;
5285;SDS011;2665;53.112;7.358;2022-11-20T05:29:48;9.57;;;4.87;;
5285;SDS011;2665;53.112;7.358;2022-11-20T05:32:14;5.77;;;3.70;;
5285;SDS011;2665;53.112;7.358;2022-11-20T05:34:39;8.33;;;4.70;;
5285;SDS011;2665;53.112;7.358;2022-11-20T05:37:05;7.57;;;4.40;;
5285;SDS011;2665;53.112;7.358;2022-11-20T05:39:30;7.47;;;4.77;;
5285;SDS011;2665;53.112;7.358;2022-11-20T05:41:56;7.13;;;3.87;;
5285;SDS011;2665;53.112;7.358;2022-11-20T05:44:40;7.97;;;3.90;;
5285;SDS011;2665;53.112;7.358;2022-11-20T05:47:06;7.63;;;4.23;;
5285;SDS011;2665;53.112;7.358;2022-11-20T05:49:31;9.20;;;5.10;;
5285;SDS011;2665;53.112;7.358;2022-11-20T05:51:57;11.07;;;5.30;;
5285;SDS011;2665;53.112;7.358;2022-11-20T05:54:23;6.30;;;4.43;;
5285;SDS011;2665;53.112;7.358;2022-11-20T05:56:48;4.20;;;3.20;;
5285;SDS011;2665;53.112;7.358;2022-11-20T05:59:14;7.53;;;4.20;;
5285;SDS011;2665;53.112;7.358;2022-11-20T06:01:40;5.80;;;3.30;;
5285;SDS011;2665;53.112;7.358;2022-11-20T06:04:05;7.87;;;4.53;;
5285;SDS011;2665;53.112;7.358;2022-11-20T06:06:31;4.10;;;2.77;;
5285;SDS011;2665;53.112;7.358;2022-11-20T06:08:56;7.03;;;3.60;;
5285;SDS011;2665;53.112;7.358;2022-11-20T06:11:24;4.20;;;2.57;;
5285;SDS011;2665;53.112;7.358;2022-11-20T06:13:50;8.63;;;4.50;;
5285;SDS011;2665;53.112;7.358;2022-11-20T06:16:16;7.90;;;4.43;;
5285;SDS011;2665;53.112;7.358;2022-11-20T06:18:44;6.33;;;4.03;;
5285;SDS011;2665;53.112;7.358;2022-11-20T06:21:11;8.43;;;4.87;;
5285;SDS011;2665;53.112;7.358;2022-11-20T06:23:39;7.07;;;4.47;;
5285;SDS011;2665;53.112;7.358;2022-11-20T06:26:06;7.80;;;4.20;;
5285;SDS011;2665;53.112;7.358;2022-11-20T06:28:33;14.00;;;5.93;;
5285;SDS011;2665;53.112;7.358;2022-11-20T06:30:59;6.50;;;3.17;;
5285;SDS011;2665;53.112;7.358;2022-11-20T06:33:25;8.53;;;4.73;;
5285;SDS011;2665;53.112;7.358;2022-11-20T06:35:51;6.93;;;4.43;;
5285;SDS011;2665;53.112;7.358;2022-11-20T06:38:17;9.07;;;5.30;;
5285;SDS011;2665;53.112;7.358;2022-11-20T06:40:42;8.70;;;5.53;;
5285;SDS011;2665;53.112;7.358;2022-11-20T06:43:11;9.17;;;5.20;;
5285;SDS011;2665;53.112;7.358;2022-11-20T06:45:37;8.40;;;5.20;;
5285;SDS011;2665;53.112;7.358;2022-11-20T06:48:02;6.63;;;4.50;;
5285;SDS011;2665;53.112;7.358;2022-11-20T06:50:28;8.77;;;4.87;;
5285;SDS011;2665;53.112;7.358;2022-11-20T06:52:54;7.23;;;4.77;;
5285;SDS011;2665;53.112;7.358;2022-11-20T06:55:20;9.53;;;5.60;;
5285;SDS011;2665;53.112;7.358;2022-11-20T06:57:45;6.17;;;4.87;;
5285;SDS011;2665;53.112;7.358;2022-11-20T07:00:11;5.60;;;4.27;;
5285;SDS011;2665;53.112;7.358;2022-11-20T07:02:37;9.57;;;5.07;;
5285;SDS011;2665;53.112;7.358;2022-11-20T07:05:03;7.83;;;5.73;;
5285;SDS011;2665;53.112;7.358;2022-11-20T07:07:28;6.80;;;4.33;;
5285;SDS011;2665;53.112;7.358;2022-11-20T07:09:54;8.63;;;4.77;;
5285;SDS011;2665;53.112;7.358;2022-11-20T07:12:20;9.20;;;5.27;;
5285;SDS011;2665;53.112;7.358;2022-11-20T07:14:45;8.77;;;4.67;;
5285;SDS011;2665;53.112;7.358;2022-11-20T07:17:11;13.50;;;5.20;;
5285;SDS011;2665;53.112;7.358;2022-11-20T07:19:37;8.73;;;5.00;;
5285;SDS011;2665;53.112;7.358;2022-11-20T07:22:02;5.73;;;4.60;;
5285;SDS011;2665;53.112;7.358;2022-11-20T07:24:28;9.37;;;5.20;;
5285;SDS011;2665;53.112;7.358;2022-11-20T07:26:53;11.40;;;5.30;;
5285;SDS011;2665;53.112;7.358;2022-11-20T07:29:19;8.67;;;5.37;;
5285;SDS011;2665;53.112;7.358;2022-11-20T07:31:44;11.50;;;4.90;;
5285;SDS011;2665;53.112;7.358;2022-11-20T07:34:10;8.00;;;5.13;;
5285;SDS011;2665;53.112;7.358;2022-11-20T07:36:35;11.63;;;5.33;;
5285;SDS011;2665;53.112;7.358;2022-11-20T07:39:01;5.27;;;3.97;;
5285;SDS011;2665;53.112;7.358;2022-11-20T07:41:27;6.37;;;3.47;;
5285;SDS011;2665;53.112;7.358;2022-11-20T07:43:53;7.00;;;4.37;;
5285;SDS011;2665;53.112;7.358;2022-11-20T07:46:19;6.13;;;4.30;;
5285;SDS011;2665;53.112;7.358;2022-11-20T07:48:45;9.17;;;5.20;;
5285;SDS011;2665;53.112;7.358;2022-11-20T07:51:10;6.57;;;4.07;;
5285;SDS011;2665;53.112;7.358;2022-11-20T07:53:36;10.47;;;5.40;;
5285;SDS011;2665;53.112;7.358;2022-11-20T07:56:02;6.60;;;4.33;;
5285;SDS011;2665;53.112;7.358;2022-11-20T07:58:28;6.50;;;4.00;;
5285;SDS011;2665;53.112;7.358;2022-11-20T08:00:55;7.20;;;4.70;;
5285;SDS011;2665;53.112;7.358;2022-11-20T08:03:21;5.47;;;3.83;;
5285;SDS011;2665;53.112;7.358;2022-11-20T08:05:47;7.73;;;4.80;;
5285;SDS011;2665;53.112;7.358;2022-11-20T08:08:13;6.87;;;4.50;;
5285;SDS011;2665;53.112;7.358;2022-11-20T08:10:38;5.93;;;4.20;;
5285;SDS011;2665;53.112;7.358;2022-11-20T08:13:04;7.70;;;3.87;;
5285;SDS011;2665;53.112;7.358;2022-11-20T08:15:49;6.00;;;3.50;;
5285;SDS011;2665;53.112;7.358;2022-11-20T08:18:18;8.30;;;5.27;;
5285;SDS011;2665;53.112;7.358;2022-11-20T08:20:44;7.50;;;4.77;;
5285;SDS011;2665;53.112;7.358;2022-11-20T08:23:10;5.57;;;3.77;;
5285;SDS011;2665;53.112;7.358;2022-11-20T08:25:36;6.40;;;4.00;;
5285;SDS011;2665;53.112;7.358;2022-11-20T08:28:04;8.33;;;4.73;;
5285;SDS011;2665;53.112;7.358;2022-11-20T08:30:30;5.27;;;3.10;;
5285;SDS011;2665;53.112;7.358;2022-11-20T08:33:00;19.83;;;3.80;;
5285;SDS011;2665;53.112;7.358;2022-11-20T08:35:37;6.80;;;4.63;;
5285;SDS011;2665;53.112;7.358;2022-11-20T08:38:04;7.53;;;4.57;;
5285;SDS011;2665;53.112;7.358;2022-11-20T08:40:30;5.80;;;3.40;;
5285;SDS011;2665;53.112;7.358;2022-11-20T08:42:56;6.00;;;4.07;;
5285;SDS011;2665;53.112;7.358;2022-11-20T08:45:22;6.00;;;4.30;;
5285;SDS011;2665;53.112;7.358;2022-11-20T08:47:48;6.83;;;4.23;;
5285;SDS011;2665;53.112;7.358;2022-11-20T08:50:14;5.37;;;3.87;;
5285;SDS011;2665;53.112;7.358;2022-11-20T08:52:41;4.63;;;3.23;;
5285;SDS011;2665;53.112;7.358;2022-11-20T08:55:07;6.30;;;3.97;;
5285;SDS011;2665;53.112;7.358;2022-11-20T08:57:35;7.60;;;4.00;;
5285;SDS011;2665;53.112;7.358;2022-11-20T09:00:02;7.33;;;4.10;;
5285;SDS011;2665;53.112;7.358;2022-11-20T09:02:29;6.33;;;4.23;;
5285;SDS011;2665;53.112;7.358;2022-11-20T09:04:55;13.43;;;4.37;;
5285;SDS011;2665;53.112;7.358;2022-11-20T09:07:20;5.87;;;3.80;;
5285;SDS011;2665;53.112;7.358;2022-11-20T09:09:46;7.80;;;3.93;;
5285;SDS011;2665;53.112;7.358;2022-11-20T09:12:12;5.57;;;3.77;;
5285;SDS011;2665;53.112;7.358;2022-11-20T09:14:38;4.97;;;3.53;;
5285;SDS011;2665;53.112;7.358;2022-11-20T09:17:04;4.47;;;3.30;;
5285;SDS011;2665;53.112;7.358;2022-11-20T09:19:29;4.37;;;3.10;;
5285;SDS011;2665;53.112;7.358;2022-11-20T09:21:55;10.50;;;4.77;;
5285;SDS011;2665;53.112;7.358;2022-11-20T09:24:21;6.37;;;3.80;;
5285;SDS011;2665;53.112;7.358;2022-11-20T09:26:46;7.50;;;3.90;;
5285;SDS011;2665;53.112;7.358;2022-11-20T09:29:12;4.77;;;3.57;;
5285;SDS011;2665;53.112;7.358;2022-11-20T09:31:37;6.73;;;3.50;;
5285;SDS011;2665;53.112;7.358;2022-11-20T09:34:03;5.80;;;4.00;;
5285;SDS011;2665;53.112;7.358;2022-11-20T09:36:28;6.53;;;4.17;;
5285;SDS011;2665;53.112;7.358;2022-11-20T09:38:54;4.57;;;3.23;;
5285;SDS011;2665;53.112;7.358;2022-11-20T09:55:22;6.90;;;3.50;;
5285;SDS011;2665;53.112;7.358;2022-11-20T09:57:50;6.03;;;3.47;;
5285;SDS011;2665;53.112;7.358;2022-11-20T10:00:17;6.70;;;3.90;;
5285;SDS011;2665;53.112;7.358;2022-11-20T10:05:28;4.97;;;3.80;;
5285;SDS011;2665;53.112;7.358;2022-11-20T10:15:59;6.43;;;3.10;;
5285;SDS011;2665;53.112;7.358;2022-11-20T10:26:53;7.63;;;4.23;;
5285;SDS011;2665;53.112;7.358;2022-11-20T10:29:29;4.90;;;3.77;;
5285;SDS011;2665;53.112;7.358;2022-11-20T10:32:08;8.40;;;3.50;;
5285;SDS011;2665;53.112;7.358;2022-11-20T10:34:46;6.80;;;3.63;;
5285;SDS011;2665;53.112;7.358;2022-11-20T10:37:23;7.90;;;4.00;;
5285;SDS011;2665;53.112;7.358;2022-11-20T10:42:59;7.03;;;3.57;;
5285;SDS011;2665;53.112;7.358;2022-11-20T10:46:03;6.47;;;3.87;;
5285;SDS011;2665;53.112;7.358;2022-11-20T10:48:22;6.70;;;4.57;;
5285;SDS011;2665;53.112;7.358;2022-11-20T10:53:42;5.93;;;3.53;;
5285;SDS011;2665;53.112;7.358;2022-11-20T10:56:19;4.87;;;3.90;;
5285;SDS011;2665;53.112;7.358;2022-11-20T11:01:51;6.37;;;3.63;;
5285;SDS011;2665;53.112;7.358;2022-11-20T11:07:13;7.60;;;2.90;;
5285;SDS011;2665;53.112;7.358;2022-11-20T11:09:53;4.87;;;3.50;;
5285;SDS011;2665;53.112;7.358;2022-11-20T11:12:28;5.90;;;4.40;;
5285;SDS011;2665;53.112;7.358;2022-11-20T11:14:55;5.60;;;4.10;;
5285;SDS011;2665;53.112;7.358;2022-11-20T11:20:01;4.40;;;3.10;;
5285;SDS011;2665;53.112;7.358;2022-11-20T11:22:31;5.50;;;3.27;;
5285;SDS011;2665;53.112;7.358;2022-11-20T11:24:58;7.83;;;4.30;;
5285;SDS011;2665;53.112;7.358;2022-11-20T11:27:25;4.93;;;3.60;;
5285;SDS011;2665;53.112;7.358;2022-11-20T11:29:50;5.47;;;3.37;;
5285;SDS011;2665;53.112;7.358;2022-11-20T11:32:29;6.63;;;3.53;;
5285;SDS011;2665;53.112;7.358;2022-11-20T11:35:02;5.37;;;3.47;;
5285;SDS011;2665;53.112;7.358;2022-11-20T11:37:33;7.00;;;4.07;;
5285;SDS011;2665;53.112;7.358;2022-11-20T11:40:01;5.37;;;3.37;;
5285;SDS011;2665;53.112;7.358;2022-11-20T11:42:29;5.73;;;3.50;;
5285;SDS011;2665;53.112;7.358;2022-11-20T11:44:56;4.27;;;3.10;;
5285;SDS011;2665;53.112;7.358;2022-11-20T11:50:00;5.60;;;3.80;;
5285;SDS011;2665;53.112;7.358;2022-11-20T11:52:49;6.03;;;4.33;;
5285;SDS011;2665;53.112;7.358;2022-11-20T11:55:37;6.00;;;3.03;;
5285;SDS011;2665;53.112;7.358;2022-11-20T12:03:36;5.70;;;3.40;;
5285;SDS011;2665;53.112;7.358;2022-11-20T12:06:05;5.63;;;4.00;;
5285;SDS011;2665;53.112;7.358;2022-11-20T12:09:24;4.20;;;2.73;;
5285;SDS011;2665;53.112;7.358;2022-11-20T12:14:26;6.30;;;3.60;;
5285;SDS011;2665;53.112;7.358;2022-11-20T12:17:01;6.87;;;3.47;;
5285;SDS011;2665;53.112;7.358;2022-11-20T12:19:29;5.50;;;3.33;;
5285;SDS011;2665;53.112;7.358;2022-11-20T12:27:30;4.70;;;3.03;;
5285;SDS011;2665;53.112;7.358;2022-11-20T12:30:17;3.93;;;2.23;;
5285;SDS011;2665;53.112;7.358;2022-11-20T12:44:27;4.10;;;2.50;;
5285;SDS011;2665;53.112;7.358;2022-11-20T12:47:43;4.20;;;2.27;;
5285;SDS011;2665;53.112;7.358;2022-11-20T12:53:04;4.33;;;2.07;;
5285;SDS011;2665;53.112;7.358;2022-11-20T13:00:50;3.50;;;2.13;;
5285;SDS011;2665;53.112;7.358;2022-11-20T13:06:17;3.33;;;2.30;;
5285;SDS011;2665;53.112;7.358;2022-11-20T13:08:48;3.97;;;2.40;;
5285;SDS011;2665;53.112;7.358;2022-11-20T13:16:17;4.43;;;2.53;;
5285;SDS011;2665;53.112;7.358;2022-11-20T13:18:45;3.60;;;2.20;;
5285;SDS011;2665;53.112;7.358;2022-11-20T13:21:15;4.47;;;2.27;;
5285;SDS011;2665;53.112;7.358;2022-11-20T13:23:42;4.60;;;2.80;;
5285;SDS011;2665;53.112;7.358;2022-11-20T13:28:43;4.43;;;2.50;;
5285;SDS011;2665;53.112;7.358;2022-11-20T13:31:23;3.33;;;2.13;;
5285;SDS011;2665;53.112;7.358;2022-11-20T13:33:51;4.47;;;2.30;;
5285;SDS011;2665;53.112;7.358;2022-11-20T13:36:23;3.40;;;1.97;;
5285;SDS011;2665;53.112;7.358;2022-11-20T13:38:51;5.10;;;2.27;;
5285;SDS011;2665;53.112;7.358;2022-11-20T13:41:34;4.00;;;2.43;;
5285;SDS011;2665;53.112;7.358;2022-11-20T13:46:45;2.50;;;1.93;;
5285;SDS011;2665;53.112;7.358;2022-11-20T13:52:30;3.20;;;2.20;;
5285;SDS011;2665;53.112;7.358;2022-11-20T13:55:35;4.00;;;2.77;;
5285;SDS011;2665;53.112;7.358;2022-11-20T14:00:20;4.27;;;2.40;;
5285;SDS011;2665;53.112;7.358;2022-11-20T14:02:52;3.60;;;2.33;;
5285;SDS011;2665;53.112;7.358;2022-11-20T14:05:23;3.50;;;2.83;;
5285;SDS011;2665;53.112;7.358;2022-11-20T14:07:50;3.53;;;2.70;;
5285;SDS011;2665;53.112;7.358;2022-11-20T14:12:46;3.13;;;2.23;;
5285;SDS011;2665;53.112;7.358;2022-11-20T14:15:23;3.93;;;2.67;;
5285;SDS011;2665;53.112;7.358;2022-11-20T14:17:50;4.73;;;3.20;;
5285;SDS011;2665;53.112;7.358;2022-11-20T14:20:16;4.83;;;2.43;;
5285;SDS011;2665;53.112;7.358;2022-11-20T14:22:48;5.10;;;2.60;;
5285;SDS011;2665;53.112;7.358;2022-11-20T14:27:42;3.60;;;2.40;;
5285;SDS011;2665;53.112;7.358;2022-11-20T14:30:14;2.70;;;2.00;;
5285;SDS011;2665;53.112;7.358;2022-11-20T14:32:41;3.10;;;2.10;;
5285;SDS011;2665;53.112;7.358;2022-11-20T14:35:08;3.23;;;2.10;;
5285;SDS011;2665;53.112;7.358;2022-11-20T14:37:37;5.67;;;2.50;;
5285;SDS011;2665;53.112;7.358;2022-11-20T14:40:05;8.53;;;3.23;;
5285;SDS011;2665;53.112;7.358;2022-11-20T14:42:47;2.90;;;2.50;;
5285;SDS011;2665;53.112;7.358;2022-11-20T14:45:13;5.17;;;3.60;;
5285;SDS011;2665;53.112;7.358;2022-11-20T14:47:39;5.30;;;2.93;;
5285;SDS011;2665;53.112;7.358;2022-11-20T14:50:08;4.60;;;3.10;;
5285;SDS011;2665;53.112;7.358;2022-11-20T14:52:38;7.53;;;3.17;;
5285;SDS011;2665;53.112;7.358;2022-11-20T14:55:04;4.83;;;2.97;;
5285;SDS011;2665;53.112;7.358;2022-11-20T14:57:31;3.70;;;2.83;;
5285;SDS011;2665;53.112;7.358;2022-11-20T15:00:04;4.63;;;2.77;;
5285;SDS011;2665;53.112;7.358;2022-11-20T15:02:31;5.37;;;3.30;;
5285;SDS011;2665;53.112;7.358;2022-11-20T15:04:57;5.23;;;3.00;;
5285;SDS011;2665;53.112;7.358;2022-11-20T15:07:25;3.67;;;3.13;;
5285;SDS011;2665;53.112;7.358;2022-11-20T15:10:01;6.00;;;4.10;;
5285;SDS011;2665;53.112;7.358;2022-11-20T15:12:27;6.10;;;3.00;;
5285;SDS011;2665;53.112;7.358;2022-11-20T15:14:53;3.63;;;2.90;;
5285;SDS011;2665;53.112;7.358;2022-11-20T15:17:19;6.33;;;3.67;;
5285;SDS011;2665;53.112;7.358;2022-11-20T15:19:45;4.70;;;3.53;;
5285;SDS011;2665;53.112;7.358;2022-11-20T15:22:11;7.50;;;3.77;;
5285;SDS011;2665;53.112;7.358;2022-11-20T15:24:38;6.70;;;3.83;;
5285;SDS011;2665;53.112;7.358;2022-11-20T15:27:04;4.67;;;3.20;;
5285;SDS011;2665;53.112;7.358;2022-11-20T15:29:31;5.03;;;3.57;;
5285;SDS011;2665;53.112;7.358;2022-11-20T15:31:57;7.20;;;3.50;;
5285;SDS011;2665;53.112;7.358;2022-11-20T15:34:23;4.50;;;3.03;;
5285;SDS011;2665;53.112;7.358;2022-11-20T15:36:49;7.70;;;3.47;;
5285;SDS011;2665;53.112;7.358;2022-11-20T15:39:16;6.50;;;3.23;;
5285;SDS011;2665;53.112;7.358;2022-11-20T15:41:42;6.23;;;3.90;;
5285;SDS011;2665;53.112;7.358;2022-11-20T15:44:08;6.43;;;3.77;;
5285;SDS011;2665;53.112;7.358;2022-11-20T15:46:41;4.00;;;2.60;;
5285;SDS011;2665;53.112;7.358;2022-11-20T15:49:13;10.43;;;4.20;;
5285;SDS011;2665;53.112;7.358;2022-11-20T15:51:44;4.43;;;3.17;;
5285;SDS011;2665;53.112;7.358;2022-11-20T15:56:37;8.03;;;4.37;;
5285;SDS011;2665;53.112;7.358;2022-11-20T15:59:03;4.77;;;3.30;;
5285;SDS011;2665;53.112;7.358;2022-11-20T16:01:29;4.73;;;2.67;;
5285;SDS011;2665;53.112;7.358;2022-11-20T16:03:55;5.50;;;3.23;;
5285;SDS011;2665;53.112;7.358;2022-11-20T16:06:21;5.60;;;3.33;;
5285;SDS011;2665;53.112;7.358;2022-11-20T16:08:48;4.97;;;3.03;;
5285;SDS011;2665;53.112;7.358;2022-11-20T16:11:14;5.90;;;3.30;;
5285;SDS011;2665;53.112;7.358;2022-11-20T16:13:41;5.60;;;3.13;;
5285;SDS011;2665;53.112;7.358;2022-11-20T16:16:33;5.03;;;3.17;;
5285;SDS011;2665;53.112;7.358;2022-11-20T16:19:00;5.00;;;3.47;;
5285;SDS011;2665;53.112;7.358;2022-11-20T16:21:26;3.47;;;2.53;;
5285;SDS011;2665;53.112;7.358;2022-11-20T16:23:59;5.10;;;3.37;;
5285;SDS011;2665;53.112;7.358;2022-11-20T16:26:25;3.37;;;2.60;;
5285;SDS011;2665;53.112;7.358;2022-11-20T16:28:51;3.90;;;2.67;;
5285;SDS011;2665;53.112;7.358;2022-11-20T16:31:18;3.47;;;2.30;;
5285;SDS011;2665;53.112;7.358;2022-11-20T16:33:51;5.40;;;3.40;;
5285;SDS011;2665;53.112;7.358;2022-11-20T16:36:18;5.07;;;3.30;;
5285;SDS011;2665;53.112;7.358;2022-11-20T16:38:46;3.30;;;2.50;;
5285;SDS011;2665;53.112;7.358;2022-11-20T16:41:16;6.43;;;3.33;;
5285;SDS011;2665;53.112;7.358;2022-11-20T16:43:45;4.17;;;3.43;;
5285;SDS011;2665;53.112;7.358;2022-11-20T16:46:13;4.77;;;3.50;;
5285;SDS011;2665;53.112;7.358;2022-11-20T16:48:43;5.70;;;3.73;;
5285;SDS011;2665;53.112;7.358;2022-11-20T16:51:11;5.87;;;3.23;;
5285;SDS011;2665;53.112;7.358;2022-11-20T16:53:37;5.90;;;3.40;;
5285;SDS011;2665;53.112;7.358;2022-11-20T16:56:13;5.40;;;3.70;;
5285;SDS011;2665;53.112;7.358;2022-11-20T16:58:41;6.40;;;3.00;;
5285;SDS011;2665;53.112;7.358;2022-11-20T17:01:11;6.20;;;4.00;;
5285;SDS011;2665;53.112;7.358;2022-11-20T17:03:40;5.90;;;4.27;;
5285;SDS011;2665;53.112;7.358;2022-11-20T17:06:10;5.10;;;3.63;;
5285;SDS011;2665;53.112;7.358;2022-11-20T17:08:40;6.77;;;3.87;;
5285;SDS011;2665;53.112;7.358;2022-11-20T17:11:07;5.80;;;3.80;;
5285;SDS011;2665;53.112;7.358;2022-11-20T17:13:35;6.93;;;3.50;;
5285;SDS011;2665;53.112;7.358;2022-11-20T17:16:02;5.80;;;3.93;;
5285;SDS011;2665;53.112;7.358;2022-11-20T17:18:29;5.93;;;3.40;;